createdAt,value
2019-03-30T00:02:17.448Z,99929.34
2019-03-30T00:04:47.172Z,99917.25
2019-03-30T00:07:16.782Z,99918.09
2019-03-30T00:09:46.572Z,99920.77
2019-03-30T00:12:16.174Z,99922.38
2019-03-30T00:14:46.053Z,99921.02
2019-03-30T00:17:15.670Z,99923.35
2019-03-30T00:19:49.704Z,99916.36
2019-03-30T00:22:19.436Z,99917.03
2019-03-30T00:24:49.274Z,99918.66
2019-03-30T00:27:18.887Z,99926.02
2019-03-30T00:29:49.831Z,99923.23
2019-03-30T00:32:21.778Z,99923.74
2019-03-30T00:34:52.624Z,99927.20
2019-03-30T00:37:22.313Z,99925.13
2019-03-30T00:39:52.093Z,99924.64
2019-03-30T00:42:21.758Z,99918.70
2019-03-30T00:44:53.794Z,99916.75
2019-03-30T00:47:23.420Z,99920.02
2019-03-30T00:49:53.216Z,99914.56
2019-03-30T00:52:22.879Z,99916.47
2019-03-30T00:54:53.899Z,99914.56
2019-03-30T00:57:23.599Z,99917.97
2019-03-30T00:59:55.333Z,99916.05
2019-03-30T01:02:25.133Z,99919.14
2019-03-30T01:04:58.031Z,99915.84
2019-03-30T01:07:27.688Z,99910.69
2019-03-30T01:09:57.350Z,99909.58
2019-03-30T01:12:27.077Z,99903.19
2019-03-30T01:14:57.952Z,99903.09
2019-03-30T01:17:29.274Z,99900.95
2019-03-30T01:20:02.987Z,99902.63
2019-03-30T01:22:35.301Z,99904.39
2019-03-30T01:25:07.236Z,99905.50
2019-03-30T01:27:37.023Z,99904.51
2019-03-30T01:30:22.433Z,99904.72
2019-03-30T01:32:45.229Z,99903.72
2019-03-30T01:35:18.140Z,99903.27
2019-03-30T01:37:48.174Z,99903.03
2019-03-30T01:40:18.125Z,99907.98
2019-03-30T01:42:48.324Z,99905.98
2019-03-30T01:45:20.042Z,99909.99
2019-03-30T01:47:49.888Z,99906.67
2019-03-30T01:50:19.798Z,99908.05
2019-03-30T01:52:49.508Z,99909.99
2019-03-30T01:55:21.859Z,99911.00
2019-03-30T01:57:51.862Z,99906.74
2019-03-30T02:00:22.172Z,99910.23
2019-03-30T02:02:52.145Z,99904.91
2019-03-30T02:05:23.496Z,99904.84
2019-03-30T02:07:53.685Z,99914.80
2019-03-30T02:10:40.273Z,99900.73
2019-03-30T02:13:10.084Z,99903.98
2019-03-30T02:15:41.725Z,99899.41
2019-03-30T02:18:11.725Z,99906.60
2019-03-30T02:20:42.790Z,99897.66
2019-03-30T02:23:12.789Z,99891.53
2019-03-30T02:25:44.235Z,99894.70
2019-03-30T02:28:13.940Z,99881.72
2019-03-30T02:30:43.768Z,99880.56
2019-03-30T02:33:13.868Z,99878.95
2019-03-30T02:35:43.833Z,99878.00
2019-03-30T02:38:15.715Z,99883.70
2019-03-30T02:40:45.618Z,99884.69
2019-03-30T02:43:15.354Z,99884.34
2019-03-30T02:45:46.479Z,99890.06
2019-03-30T02:48:18.304Z,99882.62
2019-03-30T02:50:50.398Z,99881.44
2019-03-30T02:53:19.521Z,99879.46
2019-03-30T02:55:50.881Z,99879.25
2019-03-30T02:58:20.776Z,99883.25
2019-03-30T03:00:50.649Z,99878.13
2019-03-30T03:03:20.892Z,99880.64
2019-03-30T03:05:52.258Z,99872.37
2019-03-30T03:08:22.466Z,99881.98
2019-03-30T03:10:53.074Z,99870.63
2019-03-30T03:13:22.753Z,99877.05
2019-03-30T03:15:54.044Z,99871.25
2019-03-30T03:18:23.896Z,99874.66
2019-03-30T03:21:07.555Z,99878.69
2019-03-30T03:23:25.513Z,99875.05
2019-03-30T03:25:56.708Z,99870.05
2019-03-30T03:28:26.394Z,99869.23
2019-03-30T03:30:56.143Z,99868.73
2019-03-30T03:33:26.098Z,99866.65
2019-03-30T03:35:56.429Z,99865.31
2019-03-30T03:38:26.191Z,99872.69
2019-03-30T03:40:55.917Z,99866.88
2019-03-30T03:43:25.746Z,99867.52
2019-03-30T03:45:55.351Z,99866.50
2019-03-30T03:48:24.919Z,99866.63
2019-03-30T03:50:59.567Z,99866.02
2019-03-30T03:53:29.493Z,99864.69
2019-03-30T03:55:59.990Z,99864.87
2019-03-30T03:58:32.898Z,99854.54
2019-03-30T04:01:03.268Z,99856.20
2019-03-30T04:03:33.713Z,99863.95
2019-03-30T04:06:06.403Z,99862.92
2019-03-30T04:08:36.633Z,99861.62
2019-03-30T04:11:06.277Z,99862.96
2019-03-30T04:13:35.954Z,99861.48
2019-03-30T04:16:06.802Z,99855.45
2019-03-30T04:18:37.492Z,99855.01
2019-03-30T04:21:07.162Z,99860.55
2019-03-30T04:23:39.020Z,99851.30
2019-03-30T04:26:09.676Z,99857.71
2019-03-30T04:28:39.697Z,99850.33
2019-03-30T04:31:09.312Z,99857.94
2019-03-30T04:33:38.882Z,99855.98
2019-03-30T04:36:08.570Z,99861.62
2019-03-30T04:38:39.409Z,99855.80
2019-03-30T04:41:09.009Z,99860.09
2019-03-30T04:43:38.658Z,99854.39
2019-03-30T04:46:08.259Z,99857.11
2019-03-30T04:48:37.916Z,99855.03
2019-03-30T04:51:07.570Z,99851.09
2019-03-30T04:53:37.193Z,99857.27
2019-03-30T04:56:06.884Z,99851.73
2019-03-30T04:58:36.451Z,99857.33
2019-03-30T05:01:06.070Z,99858.80
2019-03-30T05:03:36.943Z,99861.36
2019-03-30T05:06:06.595Z,99860.02
2019-03-30T05:08:36.200Z,99861.06
2019-03-30T05:11:05.831Z,99862.31
2019-03-30T05:13:35.412Z,99866.69
2019-03-30T05:16:05.059Z,99868.75
2019-03-30T05:18:36.032Z,99868.78
2019-03-30T05:21:05.676Z,99864.40
2019-03-30T05:23:35.218Z,99860.72
2019-03-30T05:26:04.929Z,99863.89
2019-03-30T05:28:35.431Z,99864.69
2019-03-30T05:31:05.058Z,99864.20
2019-03-30T05:33:34.792Z,99862.80
2019-03-30T05:36:04.481Z,99865.04
2019-03-30T05:38:36.424Z,99869.06
2019-03-30T05:41:07.265Z,99865.39
2019-03-30T05:43:38.670Z,99870.09
2019-03-30T05:46:08.359Z,99870.95
2019-03-30T05:48:38.246Z,99874.43
2019-03-30T05:51:07.926Z,99871.13
2019-03-30T05:53:38.102Z,99881.31
2019-03-30T05:56:07.737Z,99879.63
2019-03-30T05:58:37.336Z,99877.90
2019-03-30T06:01:08.435Z,99871.22
2019-03-30T06:03:42.883Z,99873.69
2019-03-30T06:06:12.599Z,99881.47
2019-03-30T06:08:42.252Z,99873.30
2019-03-30T06:11:11.874Z,99870.06
2019-03-30T06:13:42.826Z,99866.27
2019-03-30T06:16:13.999Z,99856.69
2019-03-30T06:18:43.683Z,99860.88
2019-03-30T06:21:13.384Z,99853.56
2019-03-30T06:23:44.490Z,99861.74
2019-03-30T06:26:16.383Z,99858.20
2019-03-30T06:28:47.237Z,99870.15
2019-03-30T06:31:16.892Z,99868.30
2019-03-30T06:33:47.922Z,99876.11
2019-03-30T06:36:19.581Z,99868.50
2019-03-30T06:38:49.219Z,99870.65
2019-03-30T06:41:21.354Z,99868.39
2019-03-30T06:43:58.240Z,99861.59
2019-03-30T06:46:28.041Z,99872.14
2019-03-30T06:48:57.832Z,99859.89
2019-03-30T06:51:28.981Z,99879.11
2019-03-30T06:53:58.899Z,99874.00
2019-03-30T06:56:28.562Z,99869.42
2019-03-30T06:58:58.406Z,99870.39
2019-03-30T07:01:28.512Z,99855.20
2019-03-30T07:03:58.348Z,99866.17
2019-03-30T07:06:28.520Z,99868.11
2019-03-30T07:08:58.308Z,99856.36
2019-03-30T07:11:29.046Z,99860.22
2019-03-30T07:13:59.986Z,99855.46
2019-03-30T07:16:30.222Z,99855.22
2019-03-30T07:19:02.056Z,99851.50
2019-03-30T07:21:31.851Z,99854.39
2019-03-30T07:24:03.053Z,99853.69
2019-03-30T07:26:35.345Z,99851.00
2019-03-30T07:29:05.130Z,99846.90
2019-03-30T07:31:34.947Z,99845.92
2019-03-30T07:34:06.024Z,99852.62
2019-03-30T07:36:35.662Z,99853.25
2019-03-30T07:39:05.642Z,99851.45
2019-03-30T07:41:35.283Z,99846.33
2019-03-30T07:44:06.496Z,99845.67
2019-03-30T07:46:36.087Z,99851.67
2019-03-30T07:49:05.655Z,99847.47
2019-03-30T07:51:53.069Z,99841.80
2019-03-30T07:54:23.081Z,99842.95
2019-03-30T07:57:04.278Z,99844.77
2019-03-30T07:59:24.251Z,99837.50
2019-03-30T08:01:55.332Z,99830.19
2019-03-30T08:04:28.706Z,99834.94
2019-03-30T08:06:57.698Z,99835.92
2019-03-30T08:09:27.325Z,99830.03
2019-03-30T08:11:58.181Z,99826.80
2019-03-30T08:14:28.909Z,99832.02
2019-03-30T08:16:58.659Z,99824.22
2019-03-30T08:19:28.250Z,99827.63
2019-03-30T08:21:57.963Z,99832.45
2019-03-30T08:24:27.708Z,99822.76
2019-03-30T08:26:57.391Z,99815.24
2019-03-30T08:29:27.090Z,99827.69
2019-03-30T08:31:56.882Z,99822.39
2019-03-30T08:34:26.465Z,99809.63
2019-03-30T08:36:59.169Z,99817.36
2019-03-30T08:39:27.404Z,99814.38
2019-03-30T08:41:57.124Z,99807.41
2019-03-30T08:44:26.660Z,99802.48
2019-03-30T08:46:56.321Z,99809.03
2019-03-30T08:49:26.255Z,99803.08
2019-03-30T08:51:55.966Z,99798.97
2019-03-30T08:54:25.830Z,99807.89
2019-03-30T08:56:55.498Z,99804.98
2019-03-30T08:59:29.195Z,99799.31
2019-03-30T09:02:01.984Z,99796.09
2019-03-30T09:04:33.358Z,99795.96
2019-03-30T09:07:04.614Z,99797.48
2019-03-30T09:09:34.371Z,99794.31
2019-03-30T09:12:04.022Z,99790.39
2019-03-30T09:14:36.096Z,99788.52
2019-03-30T09:17:05.756Z,99787.53
2019-03-30T09:19:35.328Z,99780.86
2019-03-30T09:22:05.034Z,99782.45
2019-03-30T09:24:36.364Z,99782.14
2019-03-30T09:27:06.122Z,99776.80
2019-03-30T09:29:35.753Z,99769.06
2019-03-30T09:32:14.124Z,99772.74
2019-03-30T09:34:39.412Z,99771.68
2019-03-30T09:37:09.140Z,99765.34
2019-03-30T09:39:38.756Z,99755.66
2019-03-30T09:42:15.511Z,99762.06
2019-03-30T09:44:45.592Z,99747.66
2019-03-30T09:47:15.397Z,99748.16
2019-03-30T09:49:46.116Z,99746.55
2019-03-30T09:52:15.704Z,99740.53
2019-03-30T09:54:45.742Z,99739.66
2019-03-30T09:57:15.423Z,99736.38
2019-03-30T09:59:47.408Z,99734.02
2019-03-30T10:02:18.665Z,99733.75
2019-03-30T10:04:49.342Z,99730.73
2019-03-30T10:07:18.937Z,99729.66
2019-03-30T10:09:48.537Z,99723.85
2019-03-30T10:12:18.612Z,99722.26
2019-03-30T10:14:49.830Z,99722.91
2019-03-30T10:17:19.504Z,99717.59
2019-03-30T10:20:03.617Z,99714.70
2019-03-30T10:22:20.547Z,99721.08
2019-03-30T10:24:51.295Z,99710.53
2019-03-30T10:27:20.918Z,99711.45
2019-03-30T10:29:50.523Z,99706.27
2019-03-30T10:32:20.132Z,99702.84
2019-03-30T10:34:49.703Z,99710.05
2019-03-30T10:37:19.321Z,99703.72
2019-03-30T10:39:48.956Z,99693.88
2019-03-30T10:42:18.688Z,99689.90
2019-03-30T10:44:50.600Z,99692.14
2019-03-30T10:47:20.495Z,99685.03
2019-03-30T10:49:50.055Z,99686.95
2019-03-30T10:52:19.699Z,99675.54
2019-03-30T10:54:52.989Z,99683.43
2019-03-30T10:57:21.961Z,99677.22
2019-03-30T10:59:51.815Z,99666.97
2019-03-30T11:02:21.707Z,99671.27
2019-03-30T11:04:53.055Z,99656.80
2019-03-30T11:07:24.041Z,99659.77
2019-03-30T11:09:53.712Z,99660.09
2019-03-30T11:12:32.830Z,99657.06
2019-03-30T11:15:02.682Z,99648.60
2019-03-30T11:17:35.139Z,99645.66
2019-03-30T11:20:07.582Z,99645.66
2019-03-30T11:22:38.410Z,99648.88
2019-03-30T11:25:10.446Z,99650.72
2019-03-30T11:27:40.095Z,99642.20
2019-03-30T11:30:09.745Z,99642.20
2019-03-30T11:32:39.448Z,99628.56
2019-03-30T11:35:10.746Z,99635.52
2019-03-30T11:37:40.435Z,99625.31
2019-03-30T11:40:10.181Z,99633.97
2019-03-30T11:42:39.926Z,99622.49
2019-03-30T11:45:11.587Z,99615.05
2019-03-30T11:47:41.231Z,99615.05
2019-03-30T11:50:10.878Z,99618.92
2019-03-30T11:52:40.575Z,99606.42
2019-03-30T11:55:21.065Z,99606.42
2019-03-30T11:57:41.906Z,99597.70
2019-03-30T12:00:11.614Z,99594.56
2019-03-30T12:02:41.327Z,99598.12
2019-03-30T12:05:12.655Z,99593.20
2019-03-30T12:07:44.576Z,99583.63
2019-03-30T12:10:14.200Z,99589.52
2019-03-30T12:12:44.855Z,99588.06
2019-03-30T12:15:14.528Z,99584.12
2019-03-30T12:17:44.243Z,99583.38
2019-03-30T12:20:13.897Z,99576.99
2019-03-30T12:22:43.505Z,99592.45
2019-03-30T12:25:15.199Z,99581.50
2019-03-30T12:27:45.808Z,99577.87
2019-03-30T12:30:15.481Z,99570.36
2019-03-30T12:32:47.130Z,99566.58
2019-03-30T12:35:21.410Z,99566.39
2019-03-30T12:37:53.079Z,99566.86
2019-03-30T12:40:22.635Z,99552.22
2019-03-30T12:42:54.802Z,99557.73
2019-03-30T12:45:25.741Z,99543.98
2019-03-30T12:47:55.319Z,99549.67
2019-03-30T12:50:28.242Z,99544.69
2019-03-30T12:52:58.948Z,99537.96
2019-03-30T12:55:28.576Z,99539.70
2019-03-30T12:57:58.287Z,99539.73
2019-03-30T13:00:27.897Z,99530.44
2019-03-30T13:02:57.538Z,99532.52
2019-03-30T13:05:27.159Z,99535.73
2019-03-30T13:07:56.887Z,99533.86
2019-03-30T13:10:26.485Z,99522.17
2019-03-30T13:12:56.080Z,99524.69
2019-03-30T13:15:25.728Z,99527.08
2019-03-30T13:17:55.337Z,99527.08
2019-03-30T13:20:25.024Z,99520.64
2019-03-30T13:22:54.821Z,99520.64
2019-03-30T13:25:25.740Z,99522.48
2019-03-30T13:27:55.435Z,99520.73
2019-03-30T13:30:25.102Z,99516.91
2019-03-30T13:32:54.698Z,99510.86
2019-03-30T13:35:24.500Z,99509.41
2019-03-30T13:37:55.857Z,99507.69
2019-03-30T13:40:25.497Z,99502.17
2019-03-30T13:42:56.698Z,99507.10
2019-03-30T13:45:27.753Z,99513.13
2019-03-30T13:50:25.810Z,99492.95
2019-03-30T13:52:55.419Z,99492.23
2019-03-30T13:55:25.185Z,99492.05
2019-03-30T13:57:54.841Z,99493.47
2019-03-30T14:00:24.505Z,99489.01
2019-03-30T14:02:55.279Z,99488.88
2019-03-30T14:05:24.901Z,99480.57
2019-03-30T14:07:54.567Z,99470.72
2019-03-30T14:10:24.235Z,99467.20
2019-03-30T14:12:53.928Z,99466.50
2019-03-30T14:15:23.715Z,99471.84
2019-03-30T14:17:55.072Z,99467.45
2019-03-30T14:20:24.796Z,99471.01
2019-03-30T14:22:58.141Z,99469.94
2019-03-30T14:25:29.115Z,99470.53
2019-03-30T14:27:58.750Z,99469.84
2019-03-30T14:30:28.571Z,99466.17
2019-03-30T14:32:58.155Z,99459.36
2019-03-30T14:35:27.799Z,99458.97
2019-03-30T14:37:57.484Z,99453.70
2019-03-30T14:40:27.133Z,99454.50
2019-03-30T14:42:59.988Z,99446.23
2019-03-30T14:45:29.791Z,99444.06
2019-03-30T14:47:59.402Z,99444.17
2019-03-30T14:50:29.213Z,99443.28
2019-03-30T14:52:59.456Z,99444.39
2019-03-30T14:55:29.094Z,99436.05
2019-03-30T14:57:58.922Z,99438.64
2019-03-30T15:00:28.662Z,99433.57
2019-03-30T15:02:58.388Z,99434.92
2019-03-30T15:05:28.100Z,99432.67
2019-03-30T15:07:57.867Z,99435.59
2019-03-30T15:10:27.514Z,99436.36
2019-03-30T15:12:57.165Z,99430.97
2019-03-30T15:15:26.805Z,99429.17
2019-03-30T15:17:56.421Z,99424.88
2019-03-30T15:20:26.083Z,99426.65
2019-03-30T15:22:55.648Z,99418.65
2019-03-30T15:25:25.238Z,99418.66
2019-03-30T15:27:57.191Z,99412.63
2019-03-30T15:30:26.810Z,99411.41
2019-03-30T15:32:56.454Z,99412.78
2019-03-30T15:35:27.519Z,99411.59
2019-03-30T15:37:57.135Z,99404.56
2019-03-30T15:40:26.781Z,99400.13
2019-03-30T15:42:56.741Z,99397.16
2019-03-30T15:45:27.733Z,99398.76
2019-03-30T15:47:59.209Z,99391.19
2019-03-30T15:50:28.858Z,99390.48
2019-03-30T15:52:58.564Z,99386.80
2019-03-30T15:55:28.423Z,99388.59
2019-03-30T15:57:57.999Z,99391.37
2019-03-30T16:00:27.639Z,99384.59
2019-03-30T16:02:57.337Z,99381.04
2019-03-30T16:05:28.035Z,99388.67
2019-03-30T16:07:57.772Z,99387.78
2019-03-30T16:10:28.989Z,99383.34
2019-03-30T16:12:58.757Z,99384.86
2019-03-30T16:15:28.470Z,99387.23
2019-03-30T16:17:58.045Z,99381.30
2019-03-30T16:20:29.714Z,99376.67
2019-03-30T16:22:59.576Z,99376.84
2019-03-30T16:25:33.743Z,99374.44
2019-03-30T16:28:03.327Z,99375.73
2019-03-30T16:30:36.486Z,99377.64
2019-03-30T16:33:06.075Z,99382.32
2019-03-30T16:35:37.079Z,99378.42
2019-03-30T16:38:06.761Z,99367.26
2019-03-30T16:40:36.429Z,99369.00
2019-03-30T16:43:08.691Z,99379.02
2019-03-30T16:45:39.645Z,99377.95
2019-03-30T16:48:09.279Z,99373.18
2019-03-30T16:50:38.898Z,99375.09
2019-03-30T16:53:08.631Z,99370.52
2019-03-30T16:55:39.128Z,99375.16
2019-03-30T16:58:08.904Z,99370.45
2019-03-30T17:00:38.533Z,99368.78
2019-03-30T17:03:08.261Z,99372.70
2019-03-30T17:05:39.563Z,99373.49
2019-03-30T17:08:09.212Z,99372.60
2019-03-30T17:10:43.804Z,99374.45
2019-03-30T17:13:15.711Z,99371.58
2019-03-30T17:15:46.805Z,99373.67
2019-03-30T17:18:16.525Z,99381.79
2019-03-30T17:20:46.201Z,99375.05
2019-03-30T17:23:15.940Z,99376.12
2019-03-30T17:25:45.648Z,99378.09
2019-03-30T17:28:16.104Z,99378.86
2019-03-30T17:30:46.008Z,99378.06
2019-03-30T17:33:15.669Z,99377.47
2019-03-30T17:35:45.309Z,99379.02
2019-03-30T17:38:17.182Z,99376.87
2019-03-30T17:40:46.891Z,99382.25
2019-03-30T17:43:16.573Z,99381.56
2019-03-30T17:45:47.645Z,99381.56
2019-03-30T17:48:19.644Z,99387.91
2019-03-30T17:50:49.353Z,99387.48
2019-03-30T17:53:19.119Z,99383.37
2019-03-30T17:55:49.356Z,99385.16
2019-03-30T17:58:19.196Z,99390.72
2019-03-30T18:00:48.800Z,99393.45
2019-03-30T18:03:18.426Z,99393.08
2019-03-30T18:05:48.081Z,99396.23
2019-03-30T18:08:17.701Z,99392.47
2019-03-30T18:10:50.154Z,99399.00
2019-03-30T18:13:19.822Z,99401.50
2019-03-30T18:15:50.641Z,99403.00
2019-03-30T18:18:20.243Z,99400.61
2019-03-30T18:20:49.890Z,99408.70
2019-03-30T18:23:19.605Z,99414.77
2019-03-30T18:25:49.125Z,99409.33
2019-03-30T18:28:27.047Z,99407.42
2019-03-30T18:30:50.049Z,99415.41
2019-03-30T18:33:19.695Z,99424.23
2019-03-30T18:35:50.108Z,99418.59
2019-03-30T18:38:19.730Z,99429.70
2019-03-30T18:40:49.795Z,99427.25
2019-03-30T18:43:19.442Z,99440.66
2019-03-30T18:45:48.989Z,99434.36
2019-03-30T18:48:19.508Z,99436.07
2019-03-30T18:50:49.233Z,99437.56
2019-03-30T18:53:19.275Z,99440.96
2019-03-30T18:55:48.927Z,99440.52
2019-03-30T18:58:18.956Z,99448.67
2019-03-30T19:00:49.244Z,99442.45
2019-03-30T19:03:20.296Z,99449.05
2019-03-30T19:05:51.583Z,99456.00
2019-03-30T19:08:21.370Z,99461.52
2019-03-30T19:10:51.717Z,99456.86
2019-03-30T19:13:23.864Z,99461.39
2019-03-30T19:15:58.705Z,99460.34
2019-03-30T19:18:28.515Z,99461.53
2019-03-30T19:20:58.186Z,99462.39
2019-03-30T19:23:28.688Z,99458.81
2019-03-30T19:26:00.157Z,99466.58
2019-03-30T19:28:30.553Z,99431.40
2019-03-30T19:31:02.351Z,99465.89
2019-03-30T19:33:33.572Z,99473.85
2019-03-30T19:36:04.383Z,99476.41
2019-03-30T19:38:35.574Z,99470.53
2019-03-30T19:41:05.420Z,99470.46
2019-03-30T19:43:35.086Z,99473.51
2019-03-30T19:46:08.016Z,99474.52
2019-03-30T19:48:38.194Z,99479.95
2019-03-30T19:51:10.422Z,99477.80
2019-03-30T19:53:40.306Z,99478.16
2019-03-30T19:56:11.037Z,99482.28
2019-03-30T19:58:40.739Z,99481.34
2019-03-30T20:01:10.366Z,99481.37
2019-03-30T20:03:41.538Z,99477.05
2019-03-30T20:06:13.987Z,99484.05
2019-03-30T20:08:43.634Z,99490.92
2019-03-30T20:11:13.310Z,99491.88
2019-03-30T20:13:44.729Z,99491.28
2019-03-30T20:16:16.983Z,99492.26
2019-03-30T20:18:46.621Z,99489.84
2019-03-30T20:21:16.564Z,99492.86
2019-03-30T20:23:46.310Z,99489.50
2019-03-30T20:26:17.048Z,99486.49
2019-03-30T20:28:47.025Z,99491.41
2019-03-30T20:31:16.877Z,99493.09
2019-03-30T20:33:46.659Z,99487.69
2019-03-30T20:36:18.234Z,99488.86
2019-03-30T20:38:47.928Z,99490.31
2019-03-30T20:41:17.860Z,99488.25
2019-03-30T20:43:49.073Z,99488.22
2019-03-30T20:46:21.726Z,99490.09
2019-03-30T20:48:51.793Z,99490.70
2019-03-30T20:51:23.602Z,99492.48
2019-03-30T20:53:53.732Z,99485.87
2019-03-30T20:56:25.082Z,99488.27
2019-03-30T20:58:55.230Z,99488.63
2019-03-30T21:01:24.925Z,99480.76
2019-03-30T21:03:56.274Z,99478.78
2019-03-30T21:06:27.252Z,99481.94
2019-03-30T21:08:56.874Z,99484.69
2019-03-30T21:11:26.549Z,99481.67
2019-03-30T21:13:56.882Z,99479.70
2019-03-30T21:16:26.796Z,99477.66
2019-03-30T21:19:00.590Z,99480.66
2019-03-30T21:21:31.047Z,99477.97
2019-03-30T21:24:00.856Z,99447.80
2019-03-30T21:26:31.734Z,99481.25
2019-03-30T21:29:01.584Z,99481.36
2019-03-30T21:31:31.433Z,99486.59
2019-03-30T21:34:01.189Z,99484.40
2019-03-30T21:36:32.372Z,99483.83
2019-03-30T21:39:02.415Z,99485.36
2019-03-30T21:41:32.511Z,99477.72
2019-03-30T21:44:02.167Z,99483.58
2019-03-30T21:46:34.312Z,99479.64
2019-03-30T21:49:04.038Z,99486.34
2019-03-30T21:51:34.955Z,99481.14
2019-03-30T21:54:04.557Z,99482.13
2019-03-30T21:56:34.285Z,99485.09
2019-03-30T21:59:03.854Z,99485.41
2019-03-30T22:01:33.894Z,99485.80
2019-03-30T22:04:03.462Z,99489.53
2019-03-30T22:06:33.167Z,99485.38
2019-03-30T22:09:02.784Z,99491.64
2019-03-30T22:11:35.612Z,99488.88
2019-03-30T22:14:05.226Z,99487.66
2019-03-30T22:16:34.894Z,99489.93
2019-03-30T22:19:04.527Z,99491.71
2019-03-30T22:21:34.240Z,99489.07
2019-03-30T22:24:03.879Z,99485.73
2019-03-30T22:26:35.014Z,99487.03
2019-03-30T22:29:04.647Z,99491.28
2019-03-30T22:31:34.685Z,99486.93
2019-03-30T22:34:04.236Z,99489.05
2019-03-30T22:36:35.505Z,99486.13
2019-03-30T22:39:06.587Z,99489.42
2019-03-30T22:41:36.153Z,99486.34
2019-03-30T22:44:05.802Z,99486.50
2019-03-30T22:46:35.512Z,99485.79
2019-03-30T22:49:05.089Z,99485.65
2019-03-30T22:51:34.686Z,99486.26
2019-03-30T22:54:04.398Z,99484.57
2019-03-30T22:56:35.459Z,99479.30
2019-03-30T22:59:05.022Z,99480.34
2019-03-30T23:01:35.691Z,99482.03
2019-03-30T23:04:06.675Z,99479.13
2019-03-30T23:06:36.663Z,99484.64
2019-03-30T23:09:11.135Z,99479.95
2019-03-30T23:11:38.807Z,99486.73
2019-03-30T23:14:09.851Z,99487.59
2019-03-30T23:16:39.494Z,99488.27
2019-03-30T23:19:09.163Z,99485.09
2019-03-30T23:21:38.964Z,99487.91
2019-03-30T23:24:08.591Z,99491.04
2019-03-30T23:26:38.207Z,99474.95
2019-03-30T23:29:07.824Z,99480.64
2019-03-30T23:31:37.441Z,99481.61
2019-03-30T23:34:07.351Z,99478.14
2019-03-30T23:36:36.914Z,99477.55
2019-03-30T23:39:08.174Z,99474.64
2019-03-30T23:41:37.882Z,99474.63
2019-03-30T23:44:07.500Z,99478.64
2019-03-30T23:46:37.132Z,99478.45
2019-03-30T23:49:06.813Z,99477.31
2019-03-30T23:51:36.473Z,99478.56
2019-03-30T23:54:06.646Z,99471.06
2019-03-30T23:56:36.383Z,99474.24
2019-03-30T23:59:05.950Z,99470.30
